Time;durP1;ratioP1;P1;durP2;ratioP2;P2;SDS_P1;SDS_P2;PMS_P1;PMS_P2;Temp;Humidity;BMP_temperature;BMP_pressure;BME280_temperature;BME280_humidity;BME280_pressure;Samples;Min_cycle;Max_cycle;Signal;HPM_P1;HPM_P2
2024/01/12 00:01:55;;;;;;;55.78;22.80;;;;;;;0.11;100.00;102558.09;5021146;28;20604;-87
2024/01/12 00:04:22;;;;;;;55.20;21.80;;;;;;;0.14;100.00;102559.19;5027073;28;20116;-87
2024/01/12 00:06:49;;;;;;;56.83;23.15;;;;;;;0.16;100.00;102548.97;5041251;28;20045;-85
2024/01/12 00:09:16;;;;;;;50.30;22.75;;;;;;;0.15;100.00;102554.91;4997147;28;20042;-86
2024/01/12 00:11:43;;;;;;;46.30;20.40;;;;;;;0.14;100.00;102551.47;5022323;28;20042;-87
2024/01/12 00:14:09;;;;;;;54.63;21.48;;;;;;;0.16;100.00;102546.41;5019895;28;20044;-87
2024/01/12 00:16:36;;;;;;;38.58;18.73;;;;;;;0.16;100.00;102544.69;4993254;28;20054;-85
2024/01/12 00:19:02;;;;;;;48.63;21.25;;;;;;;0.20;100.00;102544.91;5025355;28;20042;-85
2024/01/12 00:21:28;;;;;;;49.88;21.05;;;;;;;0.20;100.00;102535.50;5008445;28;20046;-85
2024/01/12 00:23:54;;;;;;;42.53;20.05;;;;;;;0.18;100.00;102539.66;5015205;28;20082;-85
2024/01/12 00:26:21;;;;;;;38.67;21.55;;;;;;;0.18;100.00;102539.66;4994622;28;20041;-85
2024/01/12 00:28:47;;;;;;;41.50;19.20;;;;;;;0.21;100.00;102542.44;5025073;28;20525;-86
2024/01/12 00:31:14;;;;;;;45.97;19.38;;;;;;;0.23;100.00;102538.25;5004802;28;20049;-86
2024/01/12 00:33:41;;;;;;;48.00;19.48;;;;;;;0.19;100.00;102537.97;4977596;28;20054;-83
2024/01/12 00:36:07;;;;;;;46.72;19.65;;;;;;;0.21;100.00;102541.53;5004559;28;20046;-85
2024/01/12 00:38:37;;;;;;;47.60;22.40;;;;;;;0.21;100.00;102542.44;5026627;28;20502;-88
2024/01/12 00:41:04;;;;;;;42.95;19.38;;;;;;;0.23;100.00;102534.78;5022129;28;20147;-87
2024/01/12 00:43:30;;;;;;;42.58;18.85;;;;;;;0.19;100.00;102525.97;4992404;28;20117;-86
2024/01/12 00:45:57;;;;;;;46.13;20.40;;;;;;;0.19;100.00;102528.56;5014188;28;20050;-86
2024/01/12 00:48:26;;;;;;;43.78;19.25;;;;;;;0.21;100.00;102533.78;5007430;28;20141;-87
2024/01/12 00:50:53;;;;;;;48.67;19.60;;;;;;;0.19;100.00;102518.25;4988879;28;20096;-87
2024/01/12 00:53:19;;;;;;;40.08;18.10;;;;;;;0.21;100.00;102529.56;5004952;28;20501;-85
2024/01/12 00:55:46;;;;;;;48.65;18.27;;;;;;;0.21;100.00;102538.94;5019181;28;20046;-86
2024/01/12 00:58:12;;;;;;;44.72;21.70;;;;;;;0.22;100.00;102528.78;4991747;28;20048;-86
2024/01/12 01:00:39;;;;;;;41.33;18.75;;;;;;;0.23;100.00;102534.78;5019990;28;20452;-85
2024/01/12 01:03:06;;;;;;;52.25;21.92;;;;;;;0.23;100.00;102527.06;5005180;28;20056;-84
2024/01/12 01:05:33;;;;;;;48.30;20.75;;;;;;;0.23;100.00;102527.94;4990615;28;20049;-88
2024/01/12 01:07:59;;;;;;;48.95;21.55;;;;;;;0.24;100.00;102539.16;5004664;28;20053;-85
2024/01/12 01:10:26;;;;;;;41.45;19.92;;;;;;;0.23;100.00;102534.78;5005476;28;20044;-87
2024/01/12 01:12:53;;;;;;;45.33;19.45;;;;;;;0.24;100.00;102544.31;4989505;28;20072;-87
2024/01/12 01:15:19;;;;;;;50.20;21.50;;;;;;;0.25;100.00;102538.34;4989393;28;20046;-83
2024/01/12 01:17:46;;;;;;;46.88;19.55;;;;;;;0.24;100.00;102539.16;5005062;28;20050;-86
2024/01/12 01:20:15;;;;;;;49.15;22.10;;;;;;;0.27;100.00;102547.06;5008609;28;20077;-87
2024/01/12 01:22:41;;;;;;;49.55;20.27;;;;;;;0.26;100.00;102556.50;5004392;28;20053;-85
2024/01/12 01:25:08;;;;;;;53.17;21.77;;;;;;;0.27;100.00;102555.69;4990735;28;20042;-86
2024/01/12 01:27:34;;;;;;;56.58;21.38;;;;;;;0.28;100.00;102556.59;5020227;28;20301;-86
2024/01/12 01:30:01;;;;;;;52.53;24.20;;;;;;;0.28;100.00;102554.00;5006969;28;20049;-87
2024/01/12 01:32:27;;;;;;;55.05;20.52;;;;;;;0.28;100.00;102569.47;5007136;28;20048;-86
2024/01/12 01:34:54;;;;;;;55.40;22.30;;;;;;;0.28;100.00;102565.19;5007713;28;20064;-87
2024/01/12 01:37:20;;;;;;;48.13;23.13;;;;;;;0.29;100.00;102567.00;5038531;28;20046;-85
2024/01/12 01:39:47;;;;;;;55.35;23.38;;;;;;;0.28;100.00;102564.31;5019128;28;20042;-86
2024/01/12 01:42:13;;;;;;;52.95;21.63;;;;;;;0.30;100.00;102566.19;5017383;28;20069;-84
2024/01/12 01:44:40;;;;;;;51.25;21.25;;;;;;;0.31;100.00;102570.56;5021427;28;20053;-87
2024/01/12 01:47:07;;;;;;;49.97;22.02;;;;;;;0.31;100.00;102564.50;5009898;28;20120;-87
2024/01/12 01:49:35;;;;;;;45.30;20.05;;;;;;;0.31;100.00;102569.66;5006355;28;20125;-85
2024/01/12 01:52:03;;;;;;;48.92;20.95;;;;;;;0.31;100.00;102569.66;5006297;28;20048;-84
2024/01/12 01:54:30;;;;;;;58.38;22.13;;;;;;;0.30;100.00;102561.06;4988016;28;20118;-85
2024/01/12 01:56:57;;;;;;;38.53;18.08;;;;;;;0.37;100.00;102570.06;5020249;28;20045;-87
2024/01/12 01:59:23;;;;;;;49.90;19.45;;;;;;;0.38;100.00;102566.69;5001003;28;20134;-85
2024/01/12 02:01:50;;;;;;;56.80;22.70;;;;;;;0.40;100.00;102566.78;5004582;28;20106;-85
2024/01/12 02:04:17;;;;;;;35.83;18.88;;;;;;;0.38;100.00;102558.06;5004667;28;20042;-84
2024/01/12 02:06:44;;;;;;;45.70;19.50;;;;;;;0.38;100.00;102556.38;4988595;28;20162;-83
2024/01/12 02:09:11;;;;;;;47.53;21.85;;;;;;;0.38;100.00;102542.59;5009866;28;20068;-83
2024/01/12 02:11:37;;;;;;;51.90;20.65;;;;;;;0.41;100.00;102545.38;4987178;28;20122;-87
2024/01/12 02:14:06;;;;;;;44.75;18.33;;;;;;;0.38;100.00;102545.16;4985350;28;20140;-83
2024/01/12 02:16:37;;;;;;;43.22;19.75;;;;;;;0.42;100.00;102545.47;4992075;28;20077;-84
2024/01/12 02:19:09;;;;;;;47.67;17.95;;;;;;;0.44;100.00;102548.13;4987929;28;20123;-84
2024/01/12 02:21:36;;;;;;;53.88;20.23;;;;;;;0.44;100.00;102540.41;4990263;28;20054;-86
2024/01/12 02:24:02;;;;;;;46.00;19.73;;;;;;;0.42;100.00;102544.59;4973607;28;20240;-85
2024/01/12 02:26:29;;;;;;;45.60;17.13;;;;;;;0.42;100.00;102545.47;5008018;28;20105;-85
2024/01/12 02:28:56;;;;;;;56.70;20.95;;;;;;;0.44;100.00;102545.56;4957786;28;20473;-85
2024/01/12 02:31:23;;;;;;;51.60;20.73;;;;;;;0.47;100.00;102545.75;5000784;28;20057;-85
2024/01/12 02:33:52;;;;;;;47.47;18.90;;;;;;;0.47;100.00;102546.66;4987691;28;20061;-85
2024/01/12 02:36:18;;;;;;;46.63;19.48;;;;;;;0.46;100.00;102550.03;4986208;28;20069;-85
2024/01/12 02:38:50;;;;;;;46.13;19.35;;;;;;;0.47;100.00;102550.91;4980563;28;20100;-86
2024/01/12 02:41:17;;;;;;;46.72;19.40;;;;;;;0.45;100.00;102545.66;4981296;28;20038;-85
2024/01/12 02:43:43;;;;;;;49.95;19.88;;;;;;;0.45;100.00;102542.19;5024792;28;20498;-84
2024/01/12 02:46:10;;;;;;;46.92;19.80;;;;;;;0.44;100.00;102538.75;4993675;28;20469;-84
2024/01/12 02:48:36;;;;;;;58.75;21.45;;;;;;;0.42;100.00;102535.16;4981876;28;20493;-84
2024/01/12 02:51:03;;;;;;;46.20;17.65;;;;;;;0.40;100.00;102528.13;4977775;28;20050;-87
2024/01/12 02:53:30;;;;;;;42.45;18.20;;;;;;;0.40;100.00;102534.16;5001050;28;20053;-83
2024/01/12 02:55:56;;;;;;;45.00;19.20;;;;;;;0.40;100.00;102526.44;5026790;28;20047;-85
2024/01/12 02:58:23;;;;;;;53.17;20.40;;;;;;;0.40;100.00;102522.97;5009902;28;20042;-84
2024/01/12 03:00:50;;;;;;;48.50;20.27;;;;;;;0.40;100.00;102523.84;5033955;28;20038;-86
2024/01/12 03:03:16;;;;;;;50.80;20.60;;;;;;;0.40;100.00;102523.84;4976602;28;20054;-85
2024/01/12 03:05:42;;;;;;;40.92;18.73;;;;;;;0.39;100.00;102526.34;5010112;28;20045;-85
2024/01/12 03:08:10;;;;;;;44.00;20.23;;;;;;;0.36;100.00;102514.16;4995149;28;20057;-87
2024/01/12 03:10:37;;;;;;;54.13;19.85;;;;;;;0.36;100.00;102519.31;5026819;28;20068;-87
2024/01/12 03:13:04;;;;;;;49.75;19.42;;;;;;;0.40;100.00;102516.13;5025959;28;20493;-86
2024/01/12 03:15:31;;;;;;;43.42;18.77;;;;;;;0.36;100.00;102511.59;5013861;28;20050;-84
2024/01/12 03:17:57;;;;;;;43.05;18.58;;;;;;;0.39;100.00;102511.81;5024094;28;20047;-85
2024/01/12 03:20:24;;;;;;;50.92;19.92;;;;;;;0.35;100.00;102511.50;4990282;28;20422;-84
2024/01/12 03:22:51;;;;;;;49.67;20.00;;;;;;;0.37;100.00;102503.06;5008580;28;20073;-87
2024/01/12 03:25:18;;;;;;;51.67;20.75;;;;;;;0.36;100.00;102501.28;4989893;28;20043;-86
2024/01/12 03:27:44;;;;;;;64.85;24.75;;;;;;;0.35;100.00;102496.03;5011120;28;20497;-86
2024/01/12 03:30:13;;;;;;;53.08;21.80;;;;;;;0.28;100.00;102505.94;5009568;28;20464;-84
2024/01/12 03:32:39;;;;;;;51.30;23.00;;;;;;;0.33;100.00;102506.25;5013550;28;20042;-84
2024/01/12 03:35:06;;;;;;;67.38;19.65;;;;;;;0.35;100.00;102503.75;5024497;28;20056;-85
2024/01/12 03:37:33;;;;;;;55.40;20.50;;;;;;;0.34;100.00;102497.75;5003184;28;21252;-86
2024/01/12 03:39:59;;;;;;;50.17;19.67;;;;;;;0.36;100.00;102493.56;5014470;28;20488;-85
2024/01/12 03:42:26;;;;;;;58.83;21.23;;;;;;;0.36;100.00;102492.69;5005388;28;20069;-81
2024/01/12 03:44:52;;;;;;;51.20;21.25;;;;;;;0.37;100.00;102492.75;5017670;28;20101;-84
2024/01/12 03:47:21;;;;;;;48.70;19.38;;;;;;;0.35;100.00;102496.03;4988287;28;20046;-82
2024/01/12 03:49:47;;;;;;;59.88;21.10;;;;;;;0.34;100.00;102492.59;5020426;28;20459;-84
2024/01/12 03:52:14;;;;;;;51.05;19.10;;;;;;;0.41;100.00;102493.84;4992953;28;20041;-85
2024/01/12 03:54:40;;;;;;;47.92;19.13;;;;;;;0.39;100.00;102500.59;5009863;28;20050;-86
2024/01/12 03:57:09;;;;;;;46.50;19.48;;;;;;;0.39;100.00;102505.72;5005953;28;20591;-85
2024/01/12 03:59:36;;;;;;;48.55;18.17;;;;;;;0.42;100.00;102517.13;5008189;28;20080;-84
2024/01/12 04:02:03;;;;;;;52.72;20.35;;;;;;;0.44;100.00;102510.41;4995023;28;20929;-85
2024/01/12 04:04:32;;;;;;;43.85;17.63;;;;;;;0.45;100.00;102507.00;5035889;28;20042;-84
2024/01/12 04:06:59;;;;;;;49.28;19.33;;;;;;;0.43;100.00;102506.03;5013945;28;20042;-84
2024/01/12 04:09:25;;;;;;;47.88;19.33;;;;;;;0.43;100.00;102508.63;5036446;28;20039;-84
2024/01/12 04:11:52;;;;;;;43.53;18.17;;;;;;;0.43;100.00;102510.28;4991623;28;20068;-84
2024/01/12 04:14:18;;;;;;;52.33;20.42;;;;;;;0.43;100.00;102512.84;5006772;28;20052;-83
2024/01/12 04:16:47;;;;;;;43.20;19.08;;;;;;;0.39;100.00;102504.06;5019869;28;20074;-83
2024/01/12 04:19:14;;;;;;;50.67;21.73;;;;;;;0.36;100.00;102505.56;5011631;28;20390;-82
2024/01/12 04:21:40;;;;;;;43.55;18.15;;;;;;;0.37;100.00;102509.91;5007057;28;20758;-85
2024/01/12 04:24:07;;;;;;;44.45;18.08;;;;;;;0.40;100.00;102515.25;4974839;28;20075;-83
2024/01/12 04:26:33;;;;;;;43.05;16.45;;;;;;;0.41;100.00;102517.03;5006619;28;20046;-84
2024/01/12 04:29:00;;;;;;;47.28;18.40;;;;;;;0.37;100.00;102507.34;5006201;28;20053;-86
2024/01/12 04:31:26;;;;;;;38.60;17.88;;;;;;;0.35;100.00;102511.50;5003010;28;20057;-84
2024/01/12 04:33:53;;;;;;;41.00;17.35;;;;;;;0.36;100.00;102502.97;5020466;28;20054;-83
2024/01/12 04:36:23;;;;;;;31.35;14.50;;;;;;;0.33;100.00;102501.09;5003565;28;20057;-84
2024/01/12 04:38:50;;;;;;;37.67;15.98;;;;;;;0.31;100.00;102492.38;4973304;28;20059;-85
2024/01/12 04:41:17;;;;;;;34.95;15.23;;;;;;;0.33;100.00;102490.78;5021420;28;20038;-82
2024/01/12 04:43:44;;;;;;;33.65;14.05;;;;;;;0.32;100.00;102477.00;5008220;28;20101;-82
2024/01/12 04:46:11;;;;;;;31.48;15.73;;;;;;;0.35;100.00;102465.13;5023796;28;20045;-85
2024/01/12 04:48:37;;;;;;;42.72;16.17;;;;;;;0.35;100.00;102462.56;4998884;28;20046;-86
2024/01/12 04:51:04;;;;;;;37.08;17.70;;;;;;;0.33;100.00;102460.75;5002480;28;20077;-83
2024/01/12 04:53:30;;;;;;;38.83;16.95;;;;;;;0.34;100.00;102453.94;5018240;28;20058;-84
2024/01/12 04:55:57;;;;;;;46.97;17.77;;;;;;;0.30;100.00;102452.84;4992372;28;20046;-84
2024/01/12 04:58:26;;;;;;;36.05;16.02;;;;;;;0.31;100.00;102459.78;5005078;28;20053;-84
2024/01/12 05:00:52;;;;;;;33.45;15.43;;;;;;;0.29;100.00;102461.38;5021772;28;20041;-83
2024/01/12 05:03:19;;;;;;;34.50;13.60;;;;;;;0.27;100.00;102457.78;5005373;28;20045;-85
2024/01/12 05:05:45;;;;;;;40.72;15.25;;;;;;;0.24;100.00;102451.59;5018089;28;20509;-83
2024/01/12 05:08:12;;;;;;;34.65;15.15;;;;;;;0.28;100.00;102444.13;5020137;28;20128;-82
2024/01/12 05:10:38;;;;;;;30.40;15.57;;;;;;;0.26;100.00;102447.41;4986529;28;20137;-83
2024/01/12 05:13:05;;;;;;;38.83;15.43;;;;;;;0.24;100.00;102444.75;4973361;28;20830;-86
2024/01/12 05:15:41;;;;;;;35.58;16.95;;;;;;;0.29;100.00;102445.03;5020651;28;20080;-83
2024/01/12 05:18:08;;;;;;;31.65;13.70;;;;;;;0.27;100.00;102457.78;4990742;28;20042;-84
2024/01/12 05:20:35;;;;;;;42.47;15.60;;;;;;;0.24;100.00;102459.31;5001900;28;20041;-83
2024/01/12 05:23:09;;;;;;;36.78;15.15;;;;;;;0.24;100.00;102456.75;5006670;28;20061;-84
2024/01/12 05:25:39;;;;;;;34.45;15.30;;;;;;;0.19;100.00;102466.75;4989611;28;20053;-83
2024/01/12 05:28:05;;;;;;;29.88;13.95;;;;;;;0.22;100.00;102466.03;5004144;28;20058;-85
2024/01/12 05:30:32;;;;;;;38.47;16.23;;;;;;;0.18;100.00;102458.94;4989350;28;20069;-82
2024/01/12 05:32:58;;;;;;;35.28;14.35;;;;;;;0.11;100.00;102458.53;5022549;28;20045;-84
2024/01/12 05:35:25;;;;;;;31.08;14.60;;;;;;;0.12;100.00;102459.44;4999125;28;20054;-83
2024/01/12 05:37:57;;;;;;;31.35;13.20;;;;;;;0.13;100.00;102461.19;5020946;28;20132;-83
2024/01/12 05:40:23;;;;;;;33.00;15.02;;;;;;;0.13;100.00;102456.03;5006462;28;20049;-85
2024/01/12 05:42:50;;;;;;;35.10;14.13;;;;;;;0.10;100.00;102463.59;4987734;28;20056;-84
2024/01/12 05:45:17;;;;;;;26.90;13.60;;;;;;;0.12;100.00;102462.91;4986910;28;20707;-85
2024/01/12 05:47:43;;;;;;;30.67;14.25;;;;;;;0.11;100.00;102452.50;5003009;28;20053;-84
2024/01/12 05:50:10;;;;;;;39.83;15.27;;;;;;;0.14;100.00;102456.16;5021527;28;20042;-84
2024/01/12 05:52:36;;;;;;;35.25;15.43;;;;;;;0.18;100.00;102459.81;5019216;28;20505;-82
2024/01/12 05:55:03;;;;;;;36.13;14.95;;;;;;;0.17;100.00;102460.63;4986437;28;20497;-84
2024/01/12 05:57:32;;;;;;;31.65;13.27;;;;;;;0.15;100.00;102464.78;4987077;28;20141;-83
2024/01/12 05:59:59;;;;;;;32.65;16.70;;;;;;;0.15;100.00;102460.50;5008107;28;20078;-83
2024/01/12 06:02:25;;;;;;;27.98;13.82;;;;;;;0.08;100.00;102465.16;4987552;28;20116;-83
2024/01/12 06:04:52;;;;;;;29.55;13.75;;;;;;;0.08;100.00;102455.78;5035238;28;20053;-83
2024/01/12 06:07:19;;;;;;;28.95;13.25;;;;;;;0.08;100.00;102453.19;4987564;28;20053;-84
2024/01/12 06:09:46;;;;;;;26.60;12.95;;;;;;;0.11;100.00;102461.09;4972183;28;20053;-83
2024/01/12 06:12:13;;;;;;;26.02;13.32;;;;;;;0.18;100.00;102457.22;4988453;28;20046;-86
2024/01/12 06:14:40;;;;;;;32.58;13.15;;;;;;;0.16;100.00;102456.25;4995002;28;20400;-84
2024/01/12 06:17:08;;;;;;;30.52;12.70;;;;;;;0.10;100.00;102448.13;5002643;28;20064;-85
2024/01/12 06:19:34;;;;;;;34.75;14.38;;;;;;;0.12;100.00;102457.75;4996886;28;20460;-83
2024/01/12 06:22:01;;;;;;;31.08;13.70;;;;;;;0.09;100.00;102455.00;4983540;28;20393;-83
2024/01/12 06:24:27;;;;;;;27.75;13.07;;;;;;;0.10;100.00;102446.44;5003343;28;20077;-85
2024/01/12 06:26:54;;;;;;;30.08;12.07;;;;;;;0.13;100.00;102449.22;5006427;28;20073;-83
2024/01/12 06:29:20;;;;;;;25.17;12.73;;;;;;;0.15;100.00;102446.75;4985442;28;20081;-83
2024/01/12 06:31:47;;;;;;;25.95;13.55;;;;;;;0.16;100.00;102446.84;4983339;28;20046;-84
2024/01/12 06:34:14;;;;;;;28.77;12.85;;;;;;;0.16;100.00;102452.00;5004145;28;20073;-84
2024/01/12 06:36:46;;;;;;;31.85;13.15;;;;;;;0.20;100.00;102454.78;5009514;28;20077;-82
2024/01/12 06:39:13;;;;;;;31.67;14.63;;;;;;;0.18;100.00;102452.06;5005217;28;20038;-83
2024/01/12 06:41:46;;;;;;;33.78;12.65;;;;;;;0.19;100.00;102448.72;5006854;28;20045;-83
2024/01/12 06:44:13;;;;;;;29.73;12.43;;;;;;;0.21;100.00;102443.66;4987628;28;20042;-84
2024/01/12 06:46:43;;;;;;;27.77;12.60;;;;;;;0.21;100.00;102447.13;5012494;28;20148;-82
2024/01/12 06:49:11;;;;;;;27.13;12.07;;;;;;;0.19;100.00;102455.56;5007930;28;20076;-83
2024/01/12 06:51:37;;;;;;;30.05;12.45;;;;;;;0.18;100.00;102449.50;5022766;28;20049;-82
2024/01/12 06:54:05;;;;;;;28.92;14.10;;;;;;;0.16;100.00;102457.13;5028227;28;20077;-83
2024/01/12 06:56:37;;;;;;;32.35;13.55;;;;;;;0.18;100.00;102464.06;4971661;28;20053;-83
2024/01/12 06:59:04;;;;;;;35.55;13.55;;;;;;;0.21;100.00;102461.69;5021143;28;20133;-83
2024/01/12 07:01:31;;;;;;;36.03;16.73;;;;;;;0.23;100.00;102455.81;4990533;28;20441;-82
2024/01/12 07:04:00;;;;;;;30.95;15.07;;;;;;;0.17;100.00;102463.19;5003176;28;20058;-85
2024/01/12 07:06:27;;;;;;;38.20;15.63;;;;;;;0.14;100.00;102461.31;5005333;28;20568;-84
2024/01/12 07:08:53;;;;;;;29.10;15.48;;;;;;;0.18;100.00;102457.22;5007322;28;20042;-82
2024/01/12 07:11:20;;;;;;;38.65;15.90;;;;;;;0.16;100.00;102456.25;4994050;28;20045;-85
2024/01/12 07:13:46;;;;;;;30.55;14.13;;;;;;;0.18;100.00;102457.22;4982401;28;20060;-82
2024/01/12 07:16:13;;;;;;;31.65;14.32;;;;;;;0.10;100.00;102450.72;5001036;28;20048;-83
2024/01/12 07:18:42;;;;;;;36.50;14.35;;;;;;;0.11;100.00;102452.50;5002336;28;20561;-82
2024/01/12 07:21:08;;;;;;;27.52;14.15;;;;;;;0.08;100.00;102452.28;5018862;28;20536;-83
2024/01/12 07:23:35;;;;;;;30.65;13.63;;;;;;;0.08;100.00;102460.94;5006779;28;20065;-85
2024/01/12 07:26:14;;;;;;;33.25;14.27;;;;;;;0.12;100.00;102467.16;5008323;28;20427;-84
2024/01/12 07:28:45;;;;;;;31.83;15.00;;;;;;;0.10;100.00;102458.44;5007534;28;20056;-83
2024/01/12 07:31:12;;;;;;;30.27;14.02;;;;;;;0.03;100.00;102461.41;5012324;28;20044;-84
2024/01/12 07:33:41;;;;;;;32.38;14.40;;;;;;;0.03;100.00;102475.19;5041351;28;20489;-83
2024/01/12 07:36:08;;;;;;;29.15;13.05;;;;;;;0.07;100.00;102473.72;5022001;28;20133;-82
2024/01/12 07:38:35;;;;;;;28.50;14.70;;;;;;;0.08;100.00;102478.03;4970683;28;20060;-84
2024/01/12 07:41:02;;;;;;;24.88;13.90;;;;;;;0.08;100.00;102481.53;5006934;28;20056;-83
2024/01/12 07:43:30;;;;;;;32.88;14.48;;;;;;;-0.01;100.00;102471.53;4981808;28;20070;-85
2024/01/12 07:45:57;;;;;;;26.42;13.52;;;;;;;0.04;100.00;102464.09;5007991;28;20465;-83
2024/01/12 07:48:24;;;;;;;26.35;13.95;;;;;;;0.09;100.00;102469.53;4977909;28;20856;-83
2024/01/12 07:50:54;;;;;;;31.33;15.50;;;;;;;0.11;100.00;102468.81;5007722;28;20133;-82
2024/01/12 07:53:20;;;;;;;33.22;13.38;;;;;;;0.15;100.00;102469.91;5007984;28;20146;-83
2024/01/12 07:55:49;;;;;;;31.08;14.60;;;;;;;0.18;100.00;102464.06;5008055;28;20057;-82
2024/01/12 07:58:18;;;;;;;28.25;14.43;;;;;;;0.17;100.00;102470.91;4987255;28;21141;-82
2024/01/12 08:00:45;;;;;;;30.83;12.73;;;;;;;0.17;100.00;102478.66;5005286;28;20034;-85
2024/01/12 08:03:11;;;;;;;29.35;14.45;;;;;;;0.22;100.00;102478.91;4992181;28;21041;-84
2024/01/12 08:05:38;;;;;;;40.22;15.27;;;;;;;0.24;100.00;102477.34;5004236;28;20054;-84
2024/01/12 08:08:05;;;;;;;28.45;13.73;;;;;;;0.22;100.00;102478.91;4973134;28;20073;-84
2024/01/12 08:10:31;;;;;;;31.27;13.00;;;;;;;0.19;100.00;102476.16;5021221;28;20626;-85
2024/01/12 08:12:58;;;;;;;33.13;15.07;;;;;;;0.16;100.00;102477.75;5020426;28;20114;-84
2024/01/12 08:15:24;;;;;;;29.23;14.73;;;;;;;0.19;100.00;102469.31;5009941;28;20386;-85
2024/01/12 08:17:51;;;;;;;27.70;13.63;;;;;;;0.16;100.00;102474.28;5002727;28;20497;-84
2024/01/12 08:20:18;;;;;;;29.30;13.18;;;;;;;0.21;100.00;102472.91;5007594;28;20511;-85
2024/01/12 08:22:44;;;;;;;25.83;14.05;;;;;;;0.26;100.00;102470.59;4978524;28;20585;-86
2024/01/12 08:25:11;;;;;;;24.77;12.93;;;;;;;0.24;100.00;102464.47;5009628;28;20045;-86
2024/01/12 08:27:37;;;;;;;34.13;13.38;;;;;;;0.18;100.00;102464.94;4993531;28;20046;-85
2024/01/12 08:30:04;;;;;;;29.67;14.10;;;;;;;0.25;100.00;102455.91;5004510;28;20782;-84
2024/01/12 08:32:31;;;;;;;28.52;13.20;;;;;;;0.21;100.00;102453.94;4993056;28;20497;-84
2024/01/12 08:34:57;;;;;;;27.30;14.55;;;;;;;0.25;100.00;102455.91;5001435;28;20389;-82
2024/01/12 08:37:27;;;;;;;33.22;14.90;;;;;;;0.18;100.00;102457.22;4989422;28;20042;-85
2024/01/12 08:39:53;;;;;;;30.92;13.63;;;;;;;0.22;100.00;102459.22;5008244;28;20104;-83
2024/01/12 08:42:22;;;;;;;28.10;12.48;;;;;;;0.24;100.00;102452.47;5003580;28;20077;-84
2024/01/12 08:44:51;;;;;;;25.95;13.45;;;;;;;0.20;100.00;102454.78;5010019;28;20046;-87
2024/01/12 08:47:20;;;;;;;26.00;12.40;;;;;;;0.28;100.00;102454.44;5006385;28;20069;-86
2024/01/12 08:49:47;;;;;;;24.67;11.57;;;;;;;0.29;100.00;102453.66;4987717;28;20143;-84
2024/01/12 08:52:14;;;;;;;24.33;11.60;;;;;;;0.30;100.00;102433.91;4990315;28;20105;-84
2024/01/12 08:54:40;;;;;;;26.75;13.13;;;;;;;0.38;100.00;102436.97;5025116;28;20073;-85
2024/01/12 08:57:07;;;;;;;24.80;13.55;;;;;;;0.35;100.00;102441.94;4988089;28;20081;-85
2024/01/12 08:59:34;;;;;;;28.50;13.38;;;;;;;0.37;100.00;102433.50;5004192;28;20054;-82
2024/01/12 09:02:01;;;;;;;33.63;13.30;;;;;;;0.39;100.00;102426.78;5004180;28;20034;-86
2024/01/12 09:04:28;;;;;;;28.30;12.57;;;;;;;0.40;100.00;102420.81;5008319;28;20140;-85
2024/01/12 09:06:55;;;;;;;30.20;13.10;;;;;;;0.46;100.00;102428.03;5003766;28;20046;-85
2024/01/12 09:09:28;;;;;;;28.65;13.63;;;;;;;0.43;100.00;102431.31;4989233;28;20750;-83
2024/01/12 09:11:57;;;;;;;25.15;12.98;;;;;;;0.48;100.00;102429.91;5019634;28;20092;-83
2024/01/12 09:14:24;;;;;;;29.52;14.73;;;;;;;0.43;100.00;102427.81;4985320;28;20056;-85
2024/01/12 09:16:50;;;;;;;24.63;12.02;;;;;;;0.49;100.00;102425.63;5005843;28;20080;-85
2024/01/12 09:19:17;;;;;;;27.23;13.73;;;;;;;0.52;100.00;102425.81;4990110;28;20053;-85
2024/01/12 09:21:44;;;;;;;25.63;13.02;;;;;;;0.57;100.00;102426.09;5005962;28;20045;-84
2024/01/12 09:24:11;;;;;;;28.67;13.27;;;;;;;0.58;100.00;102415.00;5005364;28;20075;-86
2024/01/12 09:26:41;;;;;;;21.85;11.75;;;;;;;0.64;100.00;102426.56;5022313;28;20065;-86
2024/01/12 09:29:08;;;;;;;24.92;12.68;;;;;;;0.71;100.00;102432.97;5005339;28;20062;-86
2024/01/12 09:31:34;;;;;;;21.33;13.30;;;;;;;0.72;100.00;102437.34;5036207;28;20442;-85
2024/01/12 09:34:01;;;;;;;25.05;10.85;;;;;;;0.73;100.00;102430.50;5019566;28;20082;-83
2024/01/12 09:36:27;;;;;;;22.02;9.85;;;;;;;0.70;100.00;102430.31;5006406;28;20060;-86
2024/01/12 09:38:54;;;;;;;23.83;11.38;;;;;;;0.74;100.00;102425.41;4974242;28;20097;-85
2024/01/12 09:41:32;;;;;;;18.98;10.18;;;;;;;0.75;100.00;102432.34;4989707;28;20042;-86
2024/01/12 09:44:01;;;;;;;19.33;9.90;;;;;;;0.79;100.00;102429.16;4981956;28;20137;-82
2024/01/12 09:46:30;;;;;;;22.40;11.82;;;;;;;0.82;100.00;102431.03;4989347;28;20046;-83
2024/01/12 09:48:56;;;;;;;17.48;9.98;;;;;;;0.85;100.00;102430.31;4986904;28;20053;-85
2024/01/12 09:51:25;;;;;;;14.27;9.40;;;;;;;0.87;100.00;102421.88;4969758;28;20078;-86
2024/01/12 09:53:51;;;;;;;20.35;10.88;;;;;;;0.91;100.00;102416.13;4991739;28;20056;-84
2024/01/12 09:56:19;;;;;;;20.40;10.98;;;;;;;0.93;100.00;102421.38;5005135;28;20056;-84
2024/01/12 09:58:48;;;;;;;19.52;10.60;;;;;;;0.91;100.00;102420.38;5019182;28;20678;-84
2024/01/12 10:01:16;;;;;;;19.90;10.82;;;;;;;0.92;100.00;102422.16;4990400;28;20492;-85
2024/01/12 10:03:44;;;;;;;28.55;11.93;;;;;;;0.96;100.00;102421.53;5003397;28;20057;-84
2024/01/12 10:06:12;;;;;;;23.40;11.32;;;;;;;1.04;100.00;102416.84;5006330;28;20141;-84
2024/01/12 10:08:40;;;;;;;21.27;11.90;;;;;;;1.05;100.00;102413.47;5024258;28;20056;-83
2024/01/12 10:11:06;;;;;;;22.08;11.10;;;;;;;1.07;100.00;102412.75;5020658;28;20042;-85
2024/01/12 10:13:44;;;;;;;21.50;12.82;;;;;;;1.08;100.00;102406.81;5033138;28;20048;-85
2024/01/12 10:19:10;;;;;;;24.33;10.82;;;;;;;1.05;100.00;102400.56;5017768;28;20060;-86
2024/01/12 10:21:42;;;;;;;18.77;9.43;;;;;;;1.03;100.00;102397.91;5017832;28;20061;-86
2024/01/12 10:24:21;;;;;;;21.33;9.23;;;;;;;1.02;100.00;102393.53;5024916;28;20039;-83
2024/01/12 10:26:49;;;;;;;16.67;10.02;;;;;;;0.99;100.00;102390.78;4981990;28;20060;-82
2024/01/12 10:29:17;;;;;;;16.10;9.55;;;;;;;0.98;100.00;102394.19;4990109;28;20046;-85
2024/01/12 10:31:45;;;;;;;17.58;10.25;;;;;;;0.97;100.00;102388.09;4991440;28;20552;-86
2024/01/12 10:34:14;;;;;;;18.95;10.00;;;;;;;0.99;100.00;102377.88;5036385;28;20050;-86
2024/01/12 10:36:42;;;;;;;22.45;9.98;;;;;;;1.04;100.00;102366.13;5021242;28;20046;-86
2024/01/12 10:39:11;;;;;;;19.75;10.07;;;;;;;1.12;100.00;102364.91;5034373;28;20057;-85
2024/01/12 10:41:42;;;;;;;17.90;9.93;;;;;;;1.03;100.00;102363.47;5005696;28;20058;-84
2024/01/12 10:44:09;;;;;;;22.55;12.43;;;;;;;0.98;100.00;102371.84;5006600;28;20502;-86
2024/01/12 10:46:50;;;;;;;19.40;10.50;;;;;;;0.99;100.00;102368.47;5006686;28;20073;-86
2024/01/12 10:49:27;;;;;;;22.25;11.23;;;;;;;1.08;100.00;102362.97;5022079;28;20068;-86
2024/01/12 10:52:13;;;;;;;16.38;11.15;;;;;;;1.13;100.00;102348.63;5022566;28;20140;-86
2024/01/12 10:55:04;;;;;;;13.77;8.85;;;;;;;1.16;100.00;102350.47;5007220;28;20077;-84
2024/01/12 10:57:35;;;;;;;18.45;10.95;;;;;;;1.18;100.00;102346.31;5009852;28;20038;-85
2024/01/12 11:00:02;;;;;;;26.20;11.65;;;;;;;1.04;100.00;102342.06;4987708;28;20049;-85
2024/01/12 11:02:29;;;;;;;22.10;12.15;;;;;;;1.09;100.00;102345.78;4995571;28;20254;-84
2024/01/12 11:04:56;;;;;;;22.27;11.20;;;;;;;1.04;100.00;102339.47;5027117;28;20053;-84
2024/01/12 11:07:23;;;;;;;24.58;10.98;;;;;;;1.08;100.00;102344.00;5009629;28;20133;-85
2024/01/12 11:09:52;;;;;;;27.98;13.52;;;;;;;1.11;100.00;102345.06;5027141;28;20540;-85
2024/01/12 11:12:46;;;;;;;25.73;12.70;;;;;;;1.11;100.00;102352.81;5008298;28;20508;-86
2024/01/12 11:15:13;;;;;;;24.30;12.63;;;;;;;1.06;100.00;102349.06;5024313;28;20050;-85